Memphis, Tennessee
Current Conditions -  °F | °C
As of 12:54 AM on Thursday 23 Oct 2014 (Local Time) from KMEM Reporting Station
Clear Clear  
Wind Chill: 53°   Ceiling: Unl
Heat Index: 53°   Visibility: 10mi
Dew Point: 43°   Wind: 5mph
Humidity: 69%   Direction: 20°NNE
Pressure: 30.19"   Gusts: NA
Location:  35.15°N, 90.05°W
Report Text: KMEM 230554Z 02004KT 10SM CLR 12/06 A3019 RMK AO2 SLP222 T01170061 10161 20117 402060106 51004 $
Loading
Personal Weather Stations






























Interactive Weather Map
Tropical Storm Tracking
New forecast layout! Learn more

10-Day Weather Forecast

Advertisements
Track Severe Weather on mobile